Time;durP1;ratioP1;P1;durP2;ratioP2;P2;SDS_P1;SDS_P2;PMS_P1;PMS_P2;Temp;Humidity;BMP_temperature;BMP_pressure;BME280_temperature;BME280_humidity;BME280_pressure;Samples;Min_cycle;Max_cycle;Signal;HPM_P1;HPM_P2
2022/04/04 00:01:48;;;;;;;0.25;0.20;;;;;;;23.28;11.58;98857.66;5034648;28;20034;-75
2022/04/04 00:04:14;;;;;;;0.20;0.20;;;;;;;23.28;11.53;98856.84;5034550;28;20078;-76
2022/04/04 00:06:40;;;;;;;0.35;0.20;;;;;;;23.26;11.81;98843.53;5034288;28;20349;-75
2022/04/04 00:09:05;;;;;;;0.20;0.20;;;;;;;23.28;11.58;98846.75;5032599;28;20064;-75
2022/04/04 00:11:31;;;;;;;0.20;0.20;;;;;;;23.27;11.69;98841.59;5034164;28;20045;-75
2022/04/04 00:13:56;;;;;;;0.20;0.20;;;;;;;23.26;11.63;98832.63;5034142;28;20041;-75
2022/04/04 00:16:21;;;;;;;0.10;0.10;;;;;;;23.26;11.67;98827.19;5033945;28;20079;-76
2022/04/04 00:18:47;;;;;;;0.20;0.20;;;;;;;23.28;11.68;98830.41;5034241;28;20025;-76
2022/04/04 00:21:12;;;;;;;0.13;0.13;;;;;;;23.28;11.73;98833.13;5033939;28;20033;-76
2022/04/04 00:23:38;;;;;;;0.20;0.20;;;;;;;23.28;11.81;98830.41;5033843;28;20025;-76
2022/04/04 00:26:04;;;;;;;0.13;0.13;;;;;;;23.29;11.75;98823.06;5034075;28;20022;-75
2022/04/04 00:28:30;;;;;;;0.20;0.20;;;;;;;23.28;11.77;98819.50;5033708;28;20022;-75
2022/04/04 00:30:55;;;;;;;0.20;0.20;;;;;;;23.28;11.84;98814.03;5034113;28;20026;-76
2022/04/04 00:33:20;;;;;;;0.20;0.20;;;;;;;23.28;11.77;98814.03;5033911;28;20029;-76
2022/04/04 00:35:46;;;;;;;0.10;0.10;;;;;;;23.27;11.89;98812.47;5033896;28;20018;-75
2022/04/04 00:38:12;;;;;;;0.20;0.20;;;;;;;23.27;11.90;98800.72;5034127;28;20410;-76
2022/04/04 00:40:38;;;;;;;0.10;0.10;;;;;;;23.27;11.90;98803.44;5033831;28;20026;-76
2022/04/04 00:43:04;;;;;;;0.15;0.15;;;;;;;23.25;12.15;98799.13;5037590;28;20082;-77
2022/04/04 00:45:29;;;;;;;0.20;0.20;;;;;;;23.26;12.01;98789.03;5058323;28;20073;-75
2022/04/04 00:47:54;;;;;;;0.20;0.20;;;;;;;23.27;12.03;98790.66;5042314;28;20411;-75
2022/04/04 00:50:22;;;;;;;0.10;0.10;;;;;;;23.25;12.24;98776.53;5042071;28;20025;-75
2022/04/04 00:52:48;;;;;;;0.20;0.20;;;;;;;23.25;12.20;98777.34;5041750;28;20104;-76
2022/04/04 00:55:14;;;;;;;0.10;0.10;;;;;;;23.28;12.31;98772.38;5055544;28;20338;-76
2022/04/04 00:57:39;;;;;;;0.20;0.20;;;;;;;23.25;12.22;98771.88;5036075;28;20033;-76
2022/04/04 01:00:06;;;;;;;0.20;0.20;;;;;;;23.25;12.00;98768.38;5027787;28;20026;-75
2022/04/04 01:02:31;;;;;;;0.20;0.10;;;;;;;23.26;12.30;98767.22;5015284;28;20030;-75
2022/04/04 01:04:57;;;;;;;0.20;0.20;;;;;;;23.25;12.36;98766.44;5016070;28;20099;-75
2022/04/04 01:07:22;;;;;;;0.20;0.20;;;;;;;23.28;12.24;98759.53;5013959;28;20472;-75
2022/04/04 01:09:48;;;;;;;0.13;0.13;;;;;;;23.23;12.41;98748.78;5013811;28;20183;-76
2022/04/04 01:12:13;;;;;;;0.17;0.17;;;;;;;23.21;12.37;98742.81;5013877;28;20096;-76
2022/04/04 01:14:46;;;;;;;0.10;0.10;;;;;;;23.25;12.30;98746.56;5014269;28;20028;-76
2022/04/04 01:17:12;;;;;;;0.13;0.13;;;;;;;23.25;12.28;98750.06;5014075;28;20026;-76
2022/04/04 01:19:37;;;;;;;0.17;0.17;;;;;;;23.26;12.33;98739.97;5014475;28;20048;-76
2022/04/04 01:22:05;;;;;;;0.20;0.20;;;;;;;23.23;12.42;98740.59;5013302;28;20018;-76
2022/04/04 01:24:31;;;;;;;0.20;0.20;;;;;;;23.25;12.54;98738.38;4996560;28;20049;-76
2022/04/04 01:26:56;;;;;;;0.10;0.10;;;;;;;23.24;12.38;98737.56;5013600;28;20104;-75
2022/04/04 01:29:22;;;;;;;0.20;0.20;;;;;;;23.27;12.42;98732.59;5013868;28;20022;-75
2022/04/04 01:31:48;;;;;;;0.10;0.10;;;;;;;23.23;12.43;98714.16;5013409;28;20535;-75
2022/04/04 01:34:13;;;;;;;0.57;0.13;;;;;;;23.28;12.37;98720.59;5013543;28;20030;-75
2022/04/04 01:36:38;;;;;;;0.10;0.10;;;;;;;23.25;12.56;98717.38;5014029;28;20472;-75
2022/04/04 01:39:04;;;;;;;0.20;0.20;;;;;;;23.25;12.50;98716.59;5013101;28;20026;-76
2022/04/04 01:41:29;;;;;;;0.20;0.20;;;;;;;23.26;12.47;98712.72;5013295;28;20026;-75
2022/04/04 01:43:55;;;;;;;0.10;0.10;;;;;;;23.25;12.47;98708.41;5013199;28;20030;-74
2022/04/04 01:46:27;;;;;;;0.20;0.20;;;;;;;23.25;12.64;98700.22;5013013;28;20105;-76
2022/04/04 01:48:56;;;;;;;0.10;0.10;;;;;;;23.20;12.91;98698.44;5013855;28;20076;-76
2022/04/04 01:51:22;;;;;;;0.20;0.20;;;;;;;23.23;12.65;98697.00;5013098;28;20033;-76
2022/04/04 01:53:47;;;;;;;0.10;0.10;;;;;;;23.23;12.68;98686.09;5012979;28;20101;-75
2022/04/04 01:56:13;;;;;;;0.20;0.20;;;;;;;23.25;12.60;98690.13;5012122;28;20061;-76
2022/04/04 01:58:39;;;;;;;0.10;0.10;;;;;;;23.25;12.73;98687.41;5013258;28;20473;-76
2022/04/04 02:01:15;;;;;;;0.20;0.20;;;;;;;23.24;12.80;98687.72;5029244;28;20029;-75
2022/04/04 02:03:41;;;;;;;0.20;0.20;;;;;;;23.25;12.77;98678.44;5032686;28;20017;-75
2022/04/04 02:06:07;;;;;;;0.20;0.20;;;;;;;23.24;12.91;98669.44;5032574;28;20384;-76
2022/04/04 02:08:32;;;;;;;0.20;0.20;;;;;;;23.20;12.68;98652.09;5032462;28;20054;-75
2022/04/04 02:10:58;;;;;;;0.20;0.20;;;;;;;23.25;13.04;98657.41;5047962;28;20458;-75
2022/04/04 02:13:25;;;;;;;0.10;0.10;;;;;;;23.25;12.87;98654.69;5032817;28;20026;-76
2022/04/04 02:15:54;;;;;;;0.20;0.20;;;;;;;23.24;13.00;98646.81;5032903;28;20025;-76
2022/04/04 02:18:19;;;;;;;0.20;0.20;;;;;;;23.24;13.09;98639.44;5031660;28;20057;-75
2022/04/04 02:20:46;;;;;;;0.40;0.20;;;;;;;23.24;13.02;98633.19;5035202;28;20471;-76
2022/04/04 02:23:11;;;;;;;0.20;0.20;;;;;;;23.23;12.96;98637.03;5036159;28;20030;-76
2022/04/04 02:25:37;;;;;;;0.15;0.15;;;;;;;23.25;13.08;98634.81;5036959;28;20026;-76
2022/04/04 02:28:03;;;;;;;0.10;0.10;;;;;;;23.23;13.09;98631.59;5035893;28;20380;-75
2022/04/04 02:30:28;;;;;;;0.10;0.10;;;;;;;23.23;13.05;98626.13;5036315;28;20041;-75
2022/04/04 02:32:54;;;;;;;0.20;0.10;;;;;;;23.24;13.13;98628.53;5035895;28;20469;-75
2022/04/04 02:35:19;;;;;;;0.60;0.20;;;;;;;23.24;13.17;98630.47;5036172;28;20125;-76
2022/04/04 02:37:45;;;;;;;0.10;0.10;;;;;;;23.22;13.27;98619.88;5036113;28;20456;-75
2022/04/04 02:40:10;;;;;;;0.10;0.10;;;;;;;23.23;13.17;98621.50;5036100;28;20420;-75
2022/04/04 02:42:36;;;;;;;0.10;0.10;;;;;;;23.23;13.36;98612.50;5036166;28;20052;-76
2022/04/04 02:45:01;;;;;;;0.22;0.20;;;;;;;23.23;13.30;98609.78;5036010;28;20441;-75
2022/04/04 02:47:27;;;;;;;0.20;0.20;;;;;;;23.23;13.29;98610.59;5035626;28;20373;-76
2022/04/04 02:49:52;;;;;;;0.10;0.10;;;;;;;23.23;13.29;98604.34;5035668;28;20018;-75
2022/04/04 02:52:18;;;;;;;0.13;0.13;;;;;;;23.21;13.41;98607.38;5035645;28;20029;-75
2022/04/04 02:54:44;;;;;;;0.20;0.20;;;;;;;23.24;13.42;98600.50;5035537;28;20041;-75
2022/04/04 02:57:10;;;;;;;0.20;0.20;;;;;;;23.16;13.65;98585.75;5035808;28;20037;-75
2022/04/04 02:59:35;;;;;;;0.10;0.10;;;;;;;23.21;13.61;98596.47;5032406;28;20088;-75
2022/04/04 03:02:01;;;;;;;0.20;0.20;;;;;;;23.21;13.57;98593.75;5015782;28;20029;-75
2022/04/04 03:04:27;;;;;;;0.10;0.10;;;;;;;23.24;13.87;98586.88;5015611;28;20033;-75
2022/04/04 03:06:52;;;;;;;0.20;0.20;;;;;;;23.23;13.85;98590.72;5015644;28;20025;-76
2022/04/04 03:09:17;;;;;;;0.20;0.20;;;;;;;23.24;13.83;98581.44;5015474;28;20046;-76
2022/04/04 03:11:43;;;;;;;0.15;0.15;;;;;;;23.28;13.67;98587.03;5015531;28;20080;-75
2022/04/04 03:14:08;;;;;;;0.20;0.20;;;;;;;23.31;13.68;98578.25;5015432;28;20026;-75
2022/04/04 03:16:34;;;;;;;0.20;0.20;;;;;;;23.33;13.80;98582.25;5015401;28;20033;-75
2022/04/04 03:19:00;;;;;;;0.30;0.20;;;;;;;23.39;14.08;98575.53;5015634;28;20030;-75
2022/04/04 03:21:28;;;;;;;1.00;0.20;;;;;;;23.41;13.93;98576.03;5014374;28;20548;-76
2022/04/04 03:23:54;;;;;;;0.13;0.13;;;;;;;23.44;14.01;98566.41;5015254;28;20040;-75
2022/04/04 03:26:19;;;;;;;0.20;0.20;;;;;;;23.49;13.85;98562.72;5015494;28;20097;-75
2022/04/04 03:28:46;;;;;;;0.20;0.20;;;;;;;23.51;13.95;98557.75;5015318;28;20453;-75
2022/04/04 03:31:12;;;;;;;0.10;0.10;;;;;;;23.54;14.12;98555.22;5015041;28;20034;-75
2022/04/04 03:33:38;;;;;;;0.20;0.20;;;;;;;23.59;14.08;98551.50;5015305;28;20080;-75
2022/04/04 03:36:03;;;;;;;0.13;0.13;;;;;;;23.60;14.24;98544.94;5014928;28;20100;-75
2022/04/04 03:38:29;;;;;;;0.20;0.20;;;;;;;23.66;14.02;98548.31;5015138;28;20084;-76
2022/04/04 03:40:54;;;;;;;0.20;0.20;;;;;;;23.68;14.00;98549.63;5014778;28;20029;-75
2022/04/04 03:43:20;;;;;;;0.20;0.20;;;;;;;23.67;14.26;98550.72;5013609;28;20022;-75
2022/04/04 03:45:46;;;;;;;0.20;0.20;;;;;;;23.69;14.25;98537.56;5014748;28;20101;-75
2022/04/04 03:48:11;;;;;;;0.20;0.20;;;;;;;23.73;14.08;98538.56;5015019;28;20117;-75
2022/04/04 03:50:37;;;;;;;0.50;0.20;;;;;;;23.76;14.46;98518.00;5014712;28;20022;-75
2022/04/04 03:53:03;;;;;;;0.15;0.15;;;;;;;23.79;14.07;98520.91;5014956;28;20026;-76
2022/04/04 03:55:31;;;;;;;0.10;0.10;;;;;;;23.81;14.37;98515.94;5014941;28;20057;-75
2022/04/04 03:57:57;;;;;;;0.25;0.20;;;;;;;23.91;14.06;98505.84;5014624;28;20022;-75
2022/04/04 04:00:23;;;;;;;0.20;0.20;;;;;;;23.91;14.15;98498.47;5022565;28;20042;-75
2022/04/04 04:02:48;;;;;;;0.10;0.10;;;;;;;23.94;14.16;98499.72;5034333;28;20022;-74
2022/04/04 04:05:14;;;;;;;0.17;0.17;;;;;;;23.95;14.24;98495.88;5034074;28;20029;-76
2022/04/04 04:07:40;;;;;;;0.20;0.20;;;;;;;23.98;14.40;98492.53;5034083;28;20033;-76
2022/04/04 04:10:06;;;;;;;0.25;0.20;;;;;;;23.98;14.46;98493.31;5033796;28;20057;-76
2022/04/04 04:12:31;;;;;;;1.13;0.30;;;;;;;23.99;14.67;98496.84;5034062;28;20033;-75
2022/04/04 04:14:57;;;;;;;0.20;0.20;;;;;;;24.02;14.35;98496.19;5033964;28;20032;-75
2022/04/04 04:17:24;;;;;;;0.20;0.20;;;;;;;24.04;14.34;98483.03;5033675;28;20053;-75
2022/04/04 04:22:34;;;;;;;0.47;0.20;;;;;;;24.09;14.54;98482.84;5033738;28;20037;-77
2022/04/04 04:24:59;;;;;;;0.20;0.20;;;;;;;24.16;14.41;98499.56;5033835;28;20044;-75
2022/04/04 04:27:25;;;;;;;0.20;0.20;;;;;;;24.16;14.56;98488.66;5033598;28;20029;-77
2022/04/04 04:29:52;;;;;;;0.82;0.45;;;;;;;24.18;14.66;98480.94;5034207;28;20069;-75
2022/04/04 04:32:18;;;;;;;8.63;0.60;;;;;;;24.14;14.47;98471.78;5033821;28;20052;-76
2022/04/04 04:34:49;;;;;;;8.35;0.60;;;;;;;24.22;14.49;98480.28;5033387;28;20025;-75
2022/04/04 04:37:15;;;;;;;1.50;0.45;;;;;;;24.30;14.74;98482.16;5033230;28;20075;-75
2022/04/04 04:39:41;;;;;;;1.38;0.40;;;;;;;24.28;14.48;98479.75;5033617;28;20465;-75
2022/04/04 04:42:06;;;;;;;0.30;0.30;;;;;;;24.32;14.17;98463.56;5033053;28;20040;-75
2022/04/04 04:44:32;;;;;;;0.40;0.40;;;;;;;24.27;14.37;98463.75;5033287;28;20528;-76
2022/04/04 04:46:57;;;;;;;0.65;0.20;;;;;;;24.28;14.54;98457.94;5033111;28;20068;-75
2022/04/04 04:49:25;;;;;;;4.70;0.50;;;;;;;24.27;14.98;98450.09;5032012;28;20018;-76
2022/04/04 04:51:52;;;;;;;4.00;0.40;;;;;;;24.34;14.70;98450.38;5033811;28;20057;-75
2022/04/04 04:54:17;;;;;;;2.13;0.30;;;;;;;24.40;14.65;98443.59;5033658;28;20105;-76
2022/04/04 04:56:43;;;;;;;1.98;0.20;;;;;;;24.44;14.58;98441.84;5033737;28;20377;-75
2022/04/04 04:59:09;;;;;;;1.75;0.30;;;;;;;24.44;14.81;98433.66;5032483;28;20040;-76
2022/04/04 05:01:35;;;;;;;0.20;0.20;;;;;;;24.40;14.95;98416.31;5017211;28;20533;-77
2022/04/04 05:04:00;;;;;;;2.45;0.20;;;;;;;24.50;15.13;98426.88;5013375;28;20055;-75
2022/04/04 05:06:26;;;;;;;8.68;0.47;;;;;;;24.53;14.98;98420.75;5013062;28;20030;-77
2022/04/04 05:08:51;;;;;;;0.30;0.20;;;;;;;24.48;15.12;98414.69;5012972;28;20088;-76
2022/04/04 05:11:17;;;;;;;0.17;0.17;;;;;;;24.52;14.98;98407.44;5013228;28;20042;-77
2022/04/04 05:13:42;;;;;;;0.35;0.35;;;;;;;24.53;14.88;98409.03;5013241;28;20469;-76
2022/04/04 05:16:10;;;;;;;2.08;0.30;;;;;;;24.51;15.04;98395.72;5012922;28;20492;-76
2022/04/04 05:18:36;;;;;;;0.68;0.10;;;;;;;24.59;15.15;98406.94;5013052;28;20385;-75
2022/04/04 05:21:03;;;;;;;0.60;0.20;;;;;;;24.55;14.92;98402.13;5012891;28;20120;-76
2022/04/04 05:23:29;;;;;;;0.63;0.20;;;;;;;24.58;14.69;98402.59;5012591;28;20018;-75
2022/04/04 05:25:54;;;;;;;0.20;0.20;;;;;;;24.64;14.78;98404.03;5012876;28;20137;-75
2022/04/04 05:28:20;;;;;;;0.30;0.20;;;;;;;24.56;14.60;98389.31;5012800;28;20377;-76
2022/04/04 05:30:46;;;;;;;1.48;0.20;;;;;;;24.55;14.83;98396.66;5012801;28;20397;-76
2022/04/04 05:33:11;;;;;;;1.52;0.20;;;;;;;24.57;14.72;98387.38;5013299;28;20040;-75
2022/04/04 05:35:37;;;;;;;0.30;0.20;;;;;;;24.65;14.57;98383.78;5012652;28;20026;-76
2022/04/04 05:38:02;;;;;;;0.35;0.20;;;;;;;24.65;14.59;98386.53;5012966;28;20030;-76
2022/04/04 05:40:28;;;;;;;0.28;0.20;;;;;;;24.67;14.70;98387.78;5014554;28;20417;-75
2022/04/04 05:42:54;;;;;;;0.10;0.10;;;;;;;24.70;14.88;98375.41;5013239;28;20088;-76
2022/04/04 05:45:21;;;;;;;0.40;0.30;;;;;;;24.69;14.92;98384.72;5012571;28;20026;-76
2022/04/04 05:47:47;;;;;;;0.10;0.10;;;;;;;24.70;14.62;98386.34;5012250;28;20030;-76
2022/04/04 05:50:12;;;;;;;0.10;0.10;;;;;;;24.68;14.76;98388.56;5012333;28;20040;-75
2022/04/04 05:52:38;;;;;;;0.38;0.20;;;;;;;24.70;14.99;98387.13;5012676;28;20026;-75
2022/04/04 05:55:04;;;;;;;0.30;0.30;;;;;;;24.66;14.58;98374.44;5013512;28;20491;-75
2022/04/04 05:57:31;;;;;;;0.60;0.28;;;;;;;24.75;14.92;98372.50;5016449;28;20077;-75
2022/04/04 05:59:56;;;;;;;4.68;0.50;;;;;;;24.78;14.80;98363.59;5018624;28;20033;-76
2022/04/04 06:02:22;;;;;;;1.95;0.52;;;;;;;24.80;14.90;98357.81;5036992;28;20029;-77
2022/04/04 06:04:48;;;;;;;3.47;0.35;;;;;;;24.80;14.93;98364.09;5036385;28;20048;-77
2022/04/04 06:07:14;;;;;;;0.57;0.30;;;;;;;24.75;15.47;98361.56;5034751;28;20057;-76
2022/04/04 06:09:40;;;;;;;1.95;0.38;;;;;;;24.83;14.84;98360.69;5035671;28;20076;-75
2022/04/04 06:12:05;;;;;;;0.30;0.30;;;;;;;24.88;14.80;98359.69;5036022;28;20026;-76
2022/04/04 06:14:31;;;;;;;0.40;0.30;;;;;;;24.92;14.91;98363.34;5037460;28;20032;-76
2022/04/04 06:16:56;;;;;;;0.30;0.30;;;;;;;24.93;14.78;98363.03;5035714;28;20440;-76
2022/04/04 06:19:21;;;;;;;0.20;0.20;;;;;;;24.90;14.70;98355.47;5035015;28;20029;-77
2022/04/04 06:21:47;;;;;;;0.20;0.20;;;;;;;24.94;14.97;98352.91;5035848;28;20033;-77
2022/04/04 06:24:13;;;;;;;0.90;0.20;;;;;;;24.96;14.91;98349.81;5036063;28;20025;-76
2022/04/04 06:26:39;;;;;;;1.05;0.20;;;;;;;24.86;14.81;98338.16;5035634;28;20484;-77
2022/04/04 06:29:09;;;;;;;2.38;0.20;;;;;;;24.89;15.70;98340.25;5035684;28;20096;-76
2022/04/04 06:31:35;;;;;;;0.20;0.20;;;;;;;24.96;15.60;98345.19;5050436;28;20039;-75
2022/04/04 06:34:00;;;;;;;2.83;0.20;;;;;;;24.92;16.69;98327.84;5035601;28;20029;-75
2022/04/04 06:36:26;;;;;;;1.27;0.20;;;;;;;24.93;16.10;98324.78;5035399;28;20030;-75
2022/04/04 06:38:52;;;;;;;0.35;0.15;;;;;;;24.93;15.63;98341.16;5035116;28;20041;-75
2022/04/04 06:41:18;;;;;;;0.32;0.25;;;;;;;25.02;15.14;98337.56;5035809;28;20097;-76
2022/04/04 06:43:43;;;;;;;0.15;0.15;;;;;;;24.97;15.50;98332.31;5035682;28;20094;-76
2022/04/04 06:46:09;;;;;;;0.43;0.20;;;;;;;25.04;15.12;98324.38;5035071;28;20469;-75
2022/04/04 06:48:34;;;;;;;0.10;0.10;;;;;;;25.05;14.88;98315.84;5035884;28;20030;-76
2022/04/04 06:51:01;;;;;;;0.85;0.22;;;;;;;25.04;15.01;98318.91;5036433;28;20032;-76
2022/04/04 06:53:28;;;;;;;1.95;0.22;;;;;;;25.06;14.97;98322.09;5036221;28;20040;-75
2022/04/04 06:55:54;;;;;;;3.13;0.30;;;;;;;25.02;14.89;98321.19;5034198;28;20127;-75
2022/04/04 06:58:21;;;;;;;0.82;0.40;;;;;;;25.08;14.75;98314.38;5036626;28;20468;-75
2022/04/04 07:00:46;;;;;;;1.23;0.60;;;;;;;25.08;15.16;98308.94;5028603;28;20018;-77
2022/04/04 07:03:12;;;;;;;1.73;0.90;;;;;;;25.06;15.08;98302.97;5015577;28;20060;-77
2022/04/04 07:05:37;;;;;;;2.13;0.93;;;;;;;25.04;15.08;98305.25;5015186;28;20022;-75
2022/04/04 07:08:03;;;;;;;2.10;0.90;;;;;;;24.97;15.22;98291.31;5016128;28;20069;-76
2022/04/04 07:10:28;;;;;;;2.80;1.02;;;;;;;25.12;15.13;98293.44;5016433;28;20046;-77
2022/04/04 07:12:54;;;;;;;3.00;0.90;;;;;;;25.12;15.12;98304.38;5014747;28;20479;-75
2022/04/04 07:15:19;;;;;;;1.58;1.00;;;;;;;25.11;15.18;98286.38;5015131;28;20421;-76
2022/04/04 07:17:45;;;;;;;1.45;0.90;;;;;;;25.17;15.14;98293.25;5015031;28;20061;-75
2022/04/04 07:20:11;;;;;;;2.15;0.90;;;;;;;25.12;15.17;98282.50;4997989;28;20030;-75
2022/04/04 07:22:37;;;;;;;1.65;0.70;;;;;;;25.15;15.01;98281.03;5015637;28;20512;-75
2022/04/04 07:25:07;;;;;;;1.02;0.80;;;;;;;25.04;15.32;98275.19;5015266;28;20034;-75
2022/04/04 07:27:33;;;;;;;0.73;0.60;;;;;;;25.17;15.50;98263.16;5014697;28;20057;-75
2022/04/04 07:29:58;;;;;;;3.45;0.70;;;;;;;25.21;15.17;98261.34;5015149;28;20101;-76
2022/04/04 07:32:24;;;;;;;1.67;1.02;;;;;;;25.19;15.27;98249.97;5015167;28;20453;-76
2022/04/04 07:34:49;;;;;;;2.05;0.90;;;;;;;25.28;15.58;98253.47;5015446;28;20022;-75
2022/04/04 07:37:14;;;;;;;3.17;0.93;;;;;;;25.25;15.32;98243.19;5015341;28;20045;-74
2022/04/04 07:39:40;;;;;;;1.30;0.73;;;;;;;25.30;15.57;98240.25;5015289;28;20379;-73
2022/04/04 07:42:06;;;;;;;1.83;0.82;;;;;;;25.28;15.55;98239.78;5014955;28;20106;-75
2022/04/04 07:44:31;;;;;;;1.35;0.75;;;;;;;25.30;15.48;98232.03;5014860;28;20420;-76
2022/04/04 07:46:57;;;;;;;2.78;0.98;;;;;;;25.34;15.41;98228.63;5014403;28;20030;-74
2022/04/04 07:49:23;;;;;;;1.83;0.65;;;;;;;25.31;15.34;98224.63;5015609;28;20021;-74
2022/04/04 07:51:48;;;;;;;0.60;0.50;;;;;;;25.38;15.53;98227.59;5014876;28;20315;-74
2022/04/04 07:54:14;;;;;;;2.65;0.50;;;;;;;25.41;15.67;98228.88;5014876;28;20034;-75
2022/04/04 07:56:40;;;;;;;0.60;0.35;;;;;;;25.42;15.37;98219.53;5014475;28;20026;-75
2022/04/04 07:59:05;;;;;;;2.65;0.60;;;;;;;25.44;15.38;98214.50;5014034;28;20356;-75
2022/04/04 08:01:32;;;;;;;0.98;0.40;;;;;;;25.42;15.26;98208.59;5026098;28;20025;-74
2022/04/04 08:03:58;;;;;;;0.80;0.55;;;;;;;25.49;15.58;98206.09;5033891;28;20136;-74
2022/04/04 08:06:23;;;;;;;0.88;0.52;;;;;;;25.51;15.73;98206.56;5032842;28;20021;-74
2022/04/04 08:08:49;;;;;;;2.60;0.50;;;;;;;25.49;15.73;98198.69;5033793;28;20073;-73
2022/04/04 08:11:14;;;;;;;2.17;0.40;;;;;;;25.48;15.59;98199.03;5033963;28;20478;-77
2022/04/04 08:13:44;;;;;;;0.40;0.30;;;;;;;25.52;15.76;98197.22;5033643;28;20093;-75
2022/04/04 08:16:09;;;;;;;0.65;0.43;;;;;;;25.49;15.46;98192.41;5034393;28;20492;-74
2022/04/04 08:18:35;;;;;;;0.40;0.30;;;;;;;25.53;15.63;98187.88;5032698;28;20029;-75
2022/04/04 08:21:00;;;;;;;1.00;0.40;;;;;;;25.51;15.73;98190.16;5033471;28;20040;-75
2022/04/04 08:23:29;;;;;;;1.50;0.47;;;;;;;25.51;15.46;98190.16;5034046;28;20029;-76
2022/04/04 08:25:57;;;;;;;0.30;0.30;;;;;;;25.50;15.72;98172.13;5033421;28;20029;-74
2022/04/04 08:28:22;;;;;;;1.70;0.40;;;;;;;25.58;15.54;98173.97;5033463;28;20033;-74
2022/04/04 08:30:48;;;;;;;0.90;0.50;;;;;;;25.61;15.22;98173.31;5034006;28;20025;-75
2022/04/04 08:33:13;;;;;;;0.40;0.30;;;;;;;25.63;15.66;98168.28;5034150;28;20028;-75
2022/04/04 08:35:39;;;;;;;1.08;0.38;;;;;;;25.60;15.37;98165.44;5034125;28;20515;-73
2022/04/04 08:38:04;;;;;;;0.90;0.40;;;;;;;25.61;15.43;98167.00;5034668;28;20036;-74
2022/04/04 08:40:30;;;;;;;2.65;0.38;;;;;;;25.59;15.56;98161.09;5033610;28;20345;-74
2022/04/04 08:42:55;;;;;;;0.35;0.25;;;;;;;25.64;15.40;98161.66;5033563;28;20358;-74
2022/04/04 08:45:21;;;;;;;2.08;0.30;;;;;;;25.64;15.28;98156.19;5032199;28;20037;-72
2022/04/04 08:47:46;;;;;;;0.30;0.30;;;;;;;25.61;15.24;98140.47;5031953;28;20033;-74
2022/04/04 08:50:12;;;;;;;1.23;0.35;;;;;;;25.59;15.32;98142.72;5031915;28;20030;-74
2022/04/04 08:52:43;;;;;;;0.43;0.30;;;;;;;25.59;15.42;98150.94;5033171;28;20041;-74
2022/04/04 08:55:09;;;;;;;36.65;12.43;;;;;;;25.66;15.69;98155.84;5031514;28;20033;-76
2022/04/04 08:57:34;;;;;;;19.20;5.72;;;;;;;25.68;15.29;98150.81;5032870;28;20033;-75
2022/04/04 08:59:59;;;;;;;14.48;4.70;;;;;;;25.68;15.71;98148.09;5032949;28;20025;-75
2022/04/04 09:02:25;;;;;;;12.15;4.18;;;;;;;25.64;15.57;98150.72;5014827;28;20049;-74
2022/04/04 09:04:51;;;;;;;6.28;2.60;;;;;;;25.63;15.67;98140.09;5013274;28;20026;-74
2022/04/04 09:07:18;;;;;;;4.57;1.65;;;;;;;25.67;15.68;98139.09;5012987;28;20036;-75
2022/04/04 09:09:46;;;;;;;5.60;1.33;;;;;;;25.66;15.48;98142.16;5013492;28;20077;-73
2022/04/04 09:12:15;;;;;;;1.65;0.85;;;;;;;25.66;15.59;98134.78;5014059;28;20112;-75
2022/04/04 09:14:45;;;;;;;2.22;0.80;;;;;;;25.71;15.56;98133.72;5013630;28;20022;-75
2022/04/04 09:17:11;;;;;;;1.38;0.50;;;;;;;25.71;15.39;98130.22;5013590;28;20103;-75
2022/04/04 09:19:37;;;;;;;2.60;0.38;;;;;;;25.71;15.53;98124.75;5013330;28;20036;-75
2022/04/04 09:22:04;;;;;;;1.08;0.50;;;;;;;25.68;15.55;98124.28;5013094;28;20418;-75
2022/04/04 09:24:48;;;;;;;1.88;0.47;;;;;;;25.75;15.67;98120.16;5013708;28;20040;-76
2022/04/04 09:27:25;;;;;;;1.05;0.35;;;;;;;25.73;15.69;98125.19;5013507;28;20030;-75
2022/04/04 09:29:55;;;;;;;1.40;0.70;;;;;;;25.65;15.38;98113.25;5017872;28;20038;-76
2022/04/04 09:32:20;;;;;;;9.20;1.30;;;;;;;25.70;15.62;98103.97;5018618;28;20055;-75
2022/04/04 09:34:53;;;;;;;2.50;0.80;;;;;;;25.68;15.43;98107.88;5019495;28;20476;-75
2022/04/04 09:37:22;;;;;;;1.95;0.90;;;;;;;25.70;15.71;98106.72;5019929;28;20030;-74
2022/04/04 09:40:00;;;;;;;1.30;0.50;;;;;;;25.76;15.77;98113.56;5018314;28;20148;-75
2022/04/04 09:42:28;;;;;;;1.77;0.90;;;;;;;25.81;16.14;98094.97;5018614;28;20407;-75
2022/04/04 09:45:02;;;;;;;3.00;1.15;;;;;;;25.79;16.08;98100.00;5019417;28;20033;-75
2022/04/04 09:47:56;;;;;;;2.88;1.13;;;;;;;25.86;16.09;98096.69;5019121;28;20026;-74
2022/04/04 09:50:41;;;;;;;2.35;1.10;;;;;;;25.84;15.99;98093.50;5019436;28;20496;-75
2022/04/04 09:53:10;;;;;;;2.85;1.00;;;;;;;25.88;15.81;98088.91;5019548;28;20167;-75
2022/04/04 09:55:37;;;;;;;4.28;0.85;;;;;;;25.70;16.31;98085.66;5020509;28;20034;-74
2022/04/04 09:58:07;;;;;;;3.90;1.20;;;;;;;25.83;16.16;98091.88;5020641;28;20105;-76
2022/04/04 10:00:37;;;;;;;10.65;3.38;;;;;;;25.70;16.32;98082.09;5004089;28;20506;-75
2022/04/04 10:03:04;;;;;;;4.03;1.85;;;;;;;25.64;16.11;98090.53;5039328;28;20056;-75
2022/04/04 10:05:30;;;;;;;4.68;1.48;;;;;;;25.81;16.31;98077.75;5039495;28;20036;-74
2022/04/04 10:07:56;;;;;;;6.55;1.40;;;;;;;25.85;16.05;98074.00;5038771;28;20037;-74
2022/04/04 10:10:24;;;;;;;21.17;8.75;;;;;;;25.75;16.05;98074.47;5039915;28;20218;-75
2022/04/04 10:12:50;;;;;;;12.75;5.25;;;;;;;25.85;16.09;98063.06;5040340;28;20048;-75
2022/04/04 10:15:15;;;;;;;18.75;8.95;;;;;;;25.87;16.56;98065.41;5038454;28;20033;-75
2022/04/04 10:17:41;;;;;;;28.17;12.82;;;;;;;25.86;16.35;98056.44;5055141;28;20360;-74
2022/04/04 10:20:06;;;;;;;61.85;25.60;;;;;;;25.91;16.45;98057.34;5039230;28;20350;-74
2022/04/04 10:22:33;;;;;;;32.10;13.48;;;;;;;25.87;16.29;98062.69;5038920;28;20361;-76
2022/04/04 10:24:58;;;;;;;25.63;11.70;;;;;;;25.83;16.09;98054.38;5037883;28;20025;-76
2022/04/04 10:27:24;;;;;;;42.10;16.20;;;;;;;25.90;15.89;98061.22;5037615;28;20083;-76
2022/04/04 10:29:52;;;;;;;42.63;18.85;;;;;;;25.83;15.83;98064.53;5037663;28;20025;-76
2022/04/04 10:32:24;;;;;;;6.28;2.88;;;;;;;25.86;15.94;98050.16;5038134;28;20095;-75
2022/04/04 10:34:51;;;;;;;11.43;4.90;;;;;;;25.84;16.03;98050.50;5054428;28;20464;-75
2022/04/04 10:37:19;;;;;;;7.75;2.65;;;;;;;25.89;15.92;98056.88;5037462;28;20034;-74
2022/04/04 10:39:47;;;;;;;8.43;3.28;;;;;;;25.90;16.02;98053.78;5053738;28;20029;-75
2022/04/04 10:42:24;;;;;;;52.17;23.40;;;;;;;25.88;16.03;98047.88;5034747;28;20073;-75
2022/04/04 10:44:55;;;;;;;33.65;15.48;;;;;;;25.88;15.91;98050.59;5035831;28;20124;-75
2022/04/04 10:47:23;;;;;;;83.90;30.70;;;;;;;25.84;15.84;98036.03;5035315;28;20049;-75
2022/04/04 10:49:49;;;;;;;80.72;31.95;;;;;;;25.89;15.76;98041.28;5035730;28;20415;-75
2022/04/04 10:52:37;;;;;;;11.95;4.80;;;;;;;25.93;15.77;98039.41;5034644;28;20037;-76
2022/04/04 10:55:37;;;;;;;4.68;1.77;;;;;;;25.96;15.79;98030.56;5035644;28;20029;-76
2022/04/04 10:58:15;;;;;;;18.38;7.32;;;;;;;25.91;15.97;98030.78;5035569;28;20037;-75
2022/04/04 11:01:02;;;;;;;7.00;2.03;;;;;;;25.95;16.05;98023.47;5033667;28;20112;-74
2022/04/04 11:03:38;;;;;;;39.90;14.98;;;;;;;25.89;16.07;98013.91;5015671;28;20133;-75
2022/04/04 11:09:18;;;;;;;18.77;7.88;;;;;;;25.89;15.96;98018.56;5015070;28;20061;-77
2022/04/04 11:11:47;;;;;;;19.23;6.88;;;;;;;25.87;15.98;98010.69;5014810;28;20030;-74
2022/04/04 11:14:17;;;;;;;19.30;7.13;;;;;;;25.89;15.79;98011.19;5017614;28;20120;-74
2022/04/04 11:17:07;;;;;;;5.63;2.47;;;;;;;25.92;15.86;98012.41;5015289;28;20449;-77
2022/04/04 11:19:52;;;;;;;1.90;0.95;;;;;;;25.92;15.94;98007.72;5020973;28;20077;-76
2022/04/04 11:22:25;;;;;;;13.82;4.65;;;;;;;25.92;16.12;98010.44;5019387;28;20437;-75
2022/04/04 11:24:55;;;;;;;36.15;14.18;;;;;;;25.89;15.81;98008.44;5029047;28;20034;-75
2022/04/04 11:27:21;;;;;;;18.08;7.22;;;;;;;25.94;16.00;98005.47;5029075;28;20030;-75
2022/04/04 11:29:47;;;;;;;10.73;3.40;;;;;;;25.85;16.11;98000.13;5027838;28;20101;-75
2022/04/04 11:32:16;;;;;;;54.65;22.08;;;;;;;25.89;15.70;98002.16;5023994;28;20026;-77
2022/04/04 11:34:42;;;;;;;46.67;16.77;;;;;;;25.89;15.78;97996.69;5026037;28;20108;-75
2022/04/04 11:37:17;;;;;;;110.80;37.97;;;;;;;25.85;15.69;97996.56;5024416;28;20018;-75